sensor_id;sensor_type;location;lat;lon;timestamp;P1;durP1;ratioP1;P2;durP2;ratioP2
55067;SDS011;40965;52.368;9.712;2022-09-14T00:01:41;4.47;;;1.45;;
55067;SDS011;40965;52.368;9.712;2022-09-14T00:04:14;2.97;;;1.05;;
55067;SDS011;40965;52.368;9.712;2022-09-14T00:06:47;3.80;;;1.13;;
55067;SDS011;40965;52.368;9.712;2022-09-14T00:09:15;2.83;;;0.85;;
55067;SDS011;40965;52.368;9.712;2022-09-14T00:11:50;4.40;;;0.98;;
55067;SDS011;40965;52.368;9.712;2022-09-14T00:14:22;2.78;;;0.80;;
55067;SDS011;40965;52.368;9.712;2022-09-14T00:16:54;6.63;;;1.25;;
55067;SDS011;40965;52.368;9.712;2022-09-14T00:19:24;9.48;;;1.17;;
55067;SDS011;40965;52.368;9.712;2022-09-14T00:21:54;4.68;;;1.25;;
55067;SDS011;40965;52.368;9.712;2022-09-14T00:24:23;5.38;;;1.50;;
55067;SDS011;40965;52.368;9.712;2022-09-14T00:27:08;5.78;;;0.82;;
55067;SDS011;40965;52.368;9.712;2022-09-14T00:29:37;2.45;;;1.00;;
55067;SDS011;40965;52.368;9.712;2022-09-14T00:32:08;6.53;;;1.83;;
55067;SDS011;40965;52.368;9.712;2022-09-14T00:34:38;2.67;;;1.05;;
55067;SDS011;40965;52.368;9.712;2022-09-14T00:37:12;3.10;;;0.70;;
55067;SDS011;40965;52.368;9.712;2022-09-14T00:39:40;3.97;;;1.02;;
55067;SDS011;40965;52.368;9.712;2022-09-14T00:42:13;5.05;;;1.13;;
55067;SDS011;40965;52.368;9.712;2022-09-14T00:47:48;3.95;;;1.30;;
55067;SDS011;40965;52.368;9.712;2022-09-14T00:50:30;1.75;;;0.90;;
55067;SDS011;40965;52.368;9.712;2022-09-14T00:52:58;7.30;;;1.33;;
55067;SDS011;40965;52.368;9.712;2022-09-14T00:55:29;5.60;;;1.27;;
55067;SDS011;40965;52.368;9.712;2022-09-14T00:57:56;3.08;;;1.27;;
55067;SDS011;40965;52.368;9.712;2022-09-14T01:00:28;1.95;;;1.38;;
55067;SDS011;40965;52.368;9.712;2022-09-14T01:02:57;4.95;;;1.33;;
55067;SDS011;40965;52.368;9.712;2022-09-14T01:05:35;2.10;;;0.90;;
55067;SDS011;40965;52.368;9.712;2022-09-14T01:11:59;2.85;;;1.00;;
55067;SDS011;40965;52.368;9.712;2022-09-14T01:23:35;2.10;;;1.23;;
55067;SDS011;40965;52.368;9.712;2022-09-14T01:29:22;1.75;;;0.70;;
55067;SDS011;40965;52.368;9.712;2022-09-14T01:32:11;4.88;;;1.35;;
55067;SDS011;40965;52.368;9.712;2022-09-14T01:34:46;3.20;;;0.73;;
55067;SDS011;40965;52.368;9.712;2022-09-14T01:37:30;2.95;;;1.00;;
55067;SDS011;40965;52.368;9.712;2022-09-14T01:40:21;2.88;;;0.98;;
55067;SDS011;40965;52.368;9.712;2022-09-14T01:45:58;6.38;;;1.15;;
55067;SDS011;40965;52.368;9.712;2022-09-14T01:48:45;3.30;;;1.10;;
55067;SDS011;40965;52.368;9.712;2022-09-14T01:51:45;1.30;;;0.73;;
55067;SDS011;40965;52.368;9.712;2022-09-14T01:54:31;2.50;;;1.15;;
55067;SDS011;40965;52.368;9.712;2022-09-14T01:57:14;0.98;;;0.95;;
55067;SDS011;40965;52.368;9.712;2022-09-14T02:00:13;3.90;;;1.20;;
55067;SDS011;40965;52.368;9.712;2022-09-14T02:02:45;8.77;;;1.33;;
55067;SDS011;40965;52.368;9.712;2022-09-14T02:05:36;6.38;;;2.22;;
55067;SDS011;40965;52.368;9.712;2022-09-14T02:08:38;2.72;;;1.05;;
55067;SDS011;40965;52.368;9.712;2022-09-14T02:11:06;4.60;;;1.05;;
55067;SDS011;40965;52.368;9.712;2022-09-14T02:13:34;2.88;;;1.55;;
55067;SDS011;40965;52.368;9.712;2022-09-14T02:16:01;2.92;;;1.33;;
55067;SDS011;40965;52.368;9.712;2022-09-14T02:18:28;1.88;;;0.88;;
55067;SDS011;40965;52.368;9.712;2022-09-14T02:20:58;3.20;;;1.10;;
55067;SDS011;40965;52.368;9.712;2022-09-14T02:23:38;2.22;;;1.35;;
55067;SDS011;40965;52.368;9.712;2022-09-14T02:26:06;2.75;;;0.80;;
55067;SDS011;40965;52.368;9.712;2022-09-14T02:28:35;3.67;;;1.15;;
55067;SDS011;40965;52.368;9.712;2022-09-14T02:34:07;2.55;;;0.82;;
55067;SDS011;40965;52.368;9.712;2022-09-14T02:37:00;5.30;;;1.08;;
55067;SDS011;40965;52.368;9.712;2022-09-14T02:39:53;3.45;;;0.90;;
55067;SDS011;40965;52.368;9.712;2022-09-14T02:43:08;1.88;;;1.15;;
55067;SDS011;40965;52.368;9.712;2022-09-14T02:49:08;2.80;;;0.90;;
55067;SDS011;40965;52.368;9.712;2022-09-14T02:52:25;3.35;;;0.40;;
55067;SDS011;40965;52.368;9.712;2022-09-14T02:54:53;1.77;;;0.80;;
55067;SDS011;40965;52.368;9.712;2022-09-14T02:57:28;1.20;;;0.70;;
55067;SDS011;40965;52.368;9.712;2022-09-14T02:59:55;3.40;;;1.10;;
55067;SDS011;40965;52.368;9.712;2022-09-14T03:02:23;3.47;;;0.63;;
55067;SDS011;40965;52.368;9.712;2022-09-14T03:04:51;2.42;;;0.90;;
55067;SDS011;40965;52.368;9.712;2022-09-14T03:07:19;1.58;;;1.10;;
55067;SDS011;40965;52.368;9.712;2022-09-14T03:09:48;2.25;;;0.75;;
55067;SDS011;40965;52.368;9.712;2022-09-14T03:12:18;2.67;;;0.73;;
55067;SDS011;40965;52.368;9.712;2022-09-14T03:14:45;2.08;;;0.57;;
55067;SDS011;40965;52.368;9.712;2022-09-14T03:17:16;1.58;;;0.70;;
55067;SDS011;40965;52.368;9.712;2022-09-14T03:19:44;2.70;;;1.10;;
55067;SDS011;40965;52.368;9.712;2022-09-14T03:22:12;2.60;;;1.00;;
55067;SDS011;40965;52.368;9.712;2022-09-14T03:24:40;3.63;;;0.95;;
55067;SDS011;40965;52.368;9.712;2022-09-14T03:27:07;4.93;;;1.45;;
55067;SDS011;40965;52.368;9.712;2022-09-14T03:29:34;3.22;;;0.82;;
55067;SDS011;40965;52.368;9.712;2022-09-14T03:32:06;5.13;;;1.38;;
55067;SDS011;40965;52.368;9.712;2022-09-14T03:34:35;2.05;;;0.77;;
55067;SDS011;40965;52.368;9.712;2022-09-14T03:37:01;4.22;;;0.88;;
55067;SDS011;40965;52.368;9.712;2022-09-14T03:39:28;2.13;;;0.70;;
55067;SDS011;40965;52.368;9.712;2022-09-14T03:41:55;3.05;;;1.02;;
55067;SDS011;40965;52.368;9.712;2022-09-14T03:44:28;4.30;;;1.20;;
55067;SDS011;40965;52.368;9.712;2022-09-14T03:46:59;7.78;;;1.13;;
55067;SDS011;40965;52.368;9.712;2022-09-14T03:49:33;1.58;;;0.90;;
55067;SDS011;40965;52.368;9.712;2022-09-14T03:52:02;8.40;;;0.95;;
55067;SDS011;40965;52.368;9.712;2022-09-14T03:54:31;2.75;;;1.38;;
55067;SDS011;40965;52.368;9.712;2022-09-14T03:56:58;6.60;;;0.82;;
55067;SDS011;40965;52.368;9.712;2022-09-14T03:59:25;6.47;;;1.17;;
55067;SDS011;40965;52.368;9.712;2022-09-14T04:01:52;2.20;;;1.05;;
55067;SDS011;40965;52.368;9.712;2022-09-14T04:04:19;2.05;;;0.75;;
55067;SDS011;40965;52.368;9.712;2022-09-14T04:06:48;6.68;;;2.38;;
55067;SDS011;40965;52.368;9.712;2022-09-14T04:09:14;4.05;;;1.45;;
55067;SDS011;40965;52.368;9.712;2022-09-14T04:11:43;4.13;;;0.70;;
55067;SDS011;40965;52.368;9.712;2022-09-14T04:14:11;2.88;;;1.27;;
55067;SDS011;40965;52.368;9.712;2022-09-14T04:16:41;3.75;;;1.30;;
55067;SDS011;40965;52.368;9.712;2022-09-14T04:19:09;5.07;;;1.80;;
55067;SDS011;40965;52.368;9.712;2022-09-14T04:21:37;3.83;;;1.13;;
55067;SDS011;40965;52.368;9.712;2022-09-14T04:24:05;2.58;;;1.10;;
55067;SDS011;40965;52.368;9.712;2022-09-14T04:26:37;3.03;;;1.20;;
55067;SDS011;40965;52.368;9.712;2022-09-14T04:29:04;2.33;;;0.70;;
55067;SDS011;40965;52.368;9.712;2022-09-14T04:31:30;2.60;;;1.95;;
55067;SDS011;40965;52.368;9.712;2022-09-14T04:34:01;1.50;;;1.20;;
55067;SDS011;40965;52.368;9.712;2022-09-14T04:36:29;3.88;;;1.50;;
55067;SDS011;40965;52.368;9.712;2022-09-14T04:38:57;3.33;;;1.00;;
55067;SDS011;40965;52.368;9.712;2022-09-14T04:41:28;4.82;;;1.33;;
55067;SDS011;40965;52.368;9.712;2022-09-14T04:43:59;4.68;;;1.60;;
55067;SDS011;40965;52.368;9.712;2022-09-14T04:46:29;6.85;;;2.20;;
55067;SDS011;40965;52.368;9.712;2022-09-14T04:48:58;6.10;;;1.90;;
55067;SDS011;40965;52.368;9.712;2022-09-14T04:51:26;3.90;;;1.52;;
55067;SDS011;40965;52.368;9.712;2022-09-14T04:53:57;5.90;;;2.08;;
55067;SDS011;40965;52.368;9.712;2022-09-14T04:56:27;2.28;;;1.88;;
55067;SDS011;40965;52.368;9.712;2022-09-14T04:59:03;7.32;;;3.05;;
55067;SDS011;40965;52.368;9.712;2022-09-14T05:01:32;9.32;;;3.60;;
55067;SDS011;40965;52.368;9.712;2022-09-14T05:04:02;5.95;;;2.45;;
55067;SDS011;40965;52.368;9.712;2022-09-14T05:06:31;7.55;;;2.33;;
55067;SDS011;40965;52.368;9.712;2022-09-14T05:09:17;12.38;;;3.17;;
55067;SDS011;40965;52.368;9.712;2022-09-14T05:11:46;10.45;;;3.28;;
55067;SDS011;40965;52.368;9.712;2022-09-14T05:14:15;11.00;;;2.85;;
55067;SDS011;40965;52.368;9.712;2022-09-14T05:16:43;17.13;;;3.55;;
55067;SDS011;40965;52.368;9.712;2022-09-14T05:19:13;8.15;;;3.08;;
55067;SDS011;40965;52.368;9.712;2022-09-14T05:21:45;5.28;;;2.28;;
55067;SDS011;40965;52.368;9.712;2022-09-14T05:24:13;12.55;;;3.22;;
55067;SDS011;40965;52.368;9.712;2022-09-14T05:26:45;6.38;;;3.15;;
55067;SDS011;40965;52.368;9.712;2022-09-14T05:29:13;10.75;;;4.10;;
55067;SDS011;40965;52.368;9.712;2022-09-14T05:31:43;8.70;;;3.40;;
55067;SDS011;40965;52.368;9.712;2022-09-14T05:34:11;9.25;;;3.55;;
55067;SDS011;40965;52.368;9.712;2022-09-14T05:36:39;5.57;;;2.70;;
55067;SDS011;40965;52.368;9.712;2022-09-14T05:39:08;9.77;;;3.47;;
55067;SDS011;40965;52.368;9.712;2022-09-14T05:41:37;8.05;;;3.22;;
55067;SDS011;40965;52.368;9.712;2022-09-14T05:44:04;6.00;;;2.58;;
55067;SDS011;40965;52.368;9.712;2022-09-14T05:46:32;7.55;;;4.53;;
55067;SDS011;40965;52.368;9.712;2022-09-14T05:48:59;7.70;;;3.22;;
55067;SDS011;40965;52.368;9.712;2022-09-14T05:51:31;16.35;;;3.58;;
55067;SDS011;40965;52.368;9.712;2022-09-14T05:53:58;10.18;;;4.20;;
55067;SDS011;40965;52.368;9.712;2022-09-14T05:56:26;11.68;;;4.20;;
55067;SDS011;40965;52.368;9.712;2022-09-14T05:58:56;12.25;;;3.95;;
55067;SDS011;40965;52.368;9.712;2022-09-14T06:01:25;14.90;;;4.95;;
55067;SDS011;40965;52.368;9.712;2022-09-14T06:03:55;9.18;;;3.38;;
55067;SDS011;40965;52.368;9.712;2022-09-14T06:06:35;5.65;;;2.60;;
55067;SDS011;40965;52.368;9.712;2022-09-14T06:09:02;10.15;;;3.05;;
55067;SDS011;40965;52.368;9.712;2022-09-14T06:11:32;7.72;;;2.78;;
55067;SDS011;40965;52.368;9.712;2022-09-14T06:14:04;5.73;;;3.10;;
55067;SDS011;40965;52.368;9.712;2022-09-14T06:16:33;8.13;;;2.22;;
55067;SDS011;40965;52.368;9.712;2022-09-14T06:19:15;5.63;;;2.10;;
55067;SDS011;40965;52.368;9.712;2022-09-14T06:21:42;6.30;;;2.03;;
55067;SDS011;40965;52.368;9.712;2022-09-14T06:24:11;8.13;;;2.03;;
55067;SDS011;40965;52.368;9.712;2022-09-14T06:26:38;7.85;;;2.15;;
55067;SDS011;40965;52.368;9.712;2022-09-14T06:29:06;9.68;;;2.55;;
55067;SDS011;40965;52.368;9.712;2022-09-14T06:31:35;6.35;;;1.92;;
55067;SDS011;40965;52.368;9.712;2022-09-14T06:34:03;3.30;;;1.67;;
55067;SDS011;40965;52.368;9.712;2022-09-14T06:36:30;11.02;;;1.50;;
55067;SDS011;40965;52.368;9.712;2022-09-14T06:39:00;13.43;;;3.08;;
55067;SDS011;40965;52.368;9.712;2022-09-14T06:41:28;3.25;;;1.20;;
55067;SDS011;40965;52.368;9.712;2022-09-14T06:44:01;2.85;;;1.20;;
55067;SDS011;40965;52.368;9.712;2022-09-14T06:46:34;8.20;;;1.45;;
55067;SDS011;40965;52.368;9.712;2022-09-14T06:49:03;5.15;;;2.03;;
55067;SDS011;40965;52.368;9.712;2022-09-14T06:51:48;3.42;;;1.42;;
55067;SDS011;40965;52.368;9.712;2022-09-14T06:54:20;6.20;;;2.60;;
55067;SDS011;40965;52.368;9.712;2022-09-14T06:56:48;4.13;;;2.25;;
55067;SDS011;40965;52.368;9.712;2022-09-14T06:59:16;5.75;;;1.83;;
55067;SDS011;40965;52.368;9.712;2022-09-14T07:01:44;1.35;;;0.90;;
55067;SDS011;40965;52.368;9.712;2022-09-14T07:04:13;2.70;;;1.13;;
55067;SDS011;40965;52.368;9.712;2022-09-14T07:06:44;4.70;;;1.23;;
55067;SDS011;40965;52.368;9.712;2022-09-14T07:09:14;8.20;;;1.27;;
55067;SDS011;40965;52.368;9.712;2022-09-14T07:11:46;3.90;;;1.42;;
55067;SDS011;40965;52.368;9.712;2022-09-14T07:14:15;5.40;;;1.38;;
55067;SDS011;40965;52.368;9.712;2022-09-14T07:16:44;3.50;;;0.98;;
55067;SDS011;40965;52.368;9.712;2022-09-14T07:19:11;7.85;;;1.30;;
55067;SDS011;40965;52.368;9.712;2022-09-14T07:21:40;3.75;;;1.77;;
55067;SDS011;40965;52.368;9.712;2022-09-14T07:24:11;3.90;;;0.98;;
55067;SDS011;40965;52.368;9.712;2022-09-14T07:26:40;3.40;;;1.20;;
55067;SDS011;40965;52.368;9.712;2022-09-14T07:29:13;0.95;;;0.82;;
55067;SDS011;40965;52.368;9.712;2022-09-14T07:32:11;2.45;;;0.73;;
55067;SDS011;40965;52.368;9.712;2022-09-14T07:34:37;6.68;;;1.25;;
55067;SDS011;40965;52.368;9.712;2022-09-14T07:37:05;3.03;;;1.13;;
55067;SDS011;40965;52.368;9.712;2022-09-14T07:39:41;11.65;;;1.63;;
55067;SDS011;40965;52.368;9.712;2022-09-14T07:42:21;3.40;;;0.80;;
55067;SDS011;40965;52.368;9.712;2022-09-14T07:44:50;6.95;;;1.90;;
55067;SDS011;40965;52.368;9.712;2022-09-14T07:47:21;1.17;;;0.70;;
55067;SDS011;40965;52.368;9.712;2022-09-14T07:49:49;4.32;;;1.30;;
55067;SDS011;40965;52.368;9.712;2022-09-14T07:52:19;6.43;;;1.45;;
55067;SDS011;40965;52.368;9.712;2022-09-14T07:54:47;3.58;;;0.85;;
55067;SDS011;40965;52.368;9.712;2022-09-14T07:57:14;6.18;;;0.85;;
55067;SDS011;40965;52.368;9.712;2022-09-14T07:59:41;4.13;;;0.93;;
55067;SDS011;40965;52.368;9.712;2022-09-14T08:02:08;3.38;;;1.17;;
55067;SDS011;40965;52.368;9.712;2022-09-14T08:04:36;3.35;;;1.17;;
55067;SDS011;40965;52.368;9.712;2022-09-14T08:07:04;3.53;;;0.88;;
55067;SDS011;40965;52.368;9.712;2022-09-14T08:09:45;4.93;;;1.17;;
55067;SDS011;40965;52.368;9.712;2022-09-14T08:12:14;7.35;;;0.85;;
55067;SDS011;40965;52.368;9.712;2022-09-14T08:14:42;9.15;;;0.75;;
55067;SDS011;40965;52.368;9.712;2022-09-14T08:17:09;8.57;;;1.60;;
55067;SDS011;40965;52.368;9.712;2022-09-14T08:19:39;6.28;;;0.93;;
55067;SDS011;40965;52.368;9.712;2022-09-14T08:22:06;6.18;;;1.30;;
55067;SDS011;40965;52.368;9.712;2022-09-14T08:24:37;3.83;;;0.55;;
55067;SDS011;40965;52.368;9.712;2022-09-14T08:27:15;2.90;;;0.75;;
55067;SDS011;40965;52.368;9.712;2022-09-14T08:29:42;2.28;;;0.85;;
55067;SDS011;40965;52.368;9.712;2022-09-14T08:32:10;6.40;;;1.35;;
55067;SDS011;40965;52.368;9.712;2022-09-14T08:34:40;3.97;;;0.80;;
55067;SDS011;40965;52.368;9.712;2022-09-14T08:37:11;2.90;;;0.70;;
55067;SDS011;40965;52.368;9.712;2022-09-14T08:39:40;3.15;;;0.90;;
55067;SDS011;40965;52.368;9.712;2022-09-14T08:42:24;4.38;;;0.80;;
55067;SDS011;40965;52.368;9.712;2022-09-14T08:44:58;3.80;;;1.20;;
55067;SDS011;40965;52.368;9.712;2022-09-14T08:47:32;4.65;;;1.33;;
55067;SDS011;40965;52.368;9.712;2022-09-14T08:50:20;3.60;;;1.13;;
55067;SDS011;40965;52.368;9.712;2022-09-14T08:52:57;8.82;;;1.55;;
55067;SDS011;40965;52.368;9.712;2022-09-14T08:55:44;4.10;;;1.30;;
55067;SDS011;40965;52.368;9.712;2022-09-14T09:01:23;8.23;;;1.05;;
55067;SDS011;40965;52.368;9.712;2022-09-14T09:04:18;4.68;;;0.85;;
55067;SDS011;40965;52.368;9.712;2022-09-14T09:07:04;5.85;;;2.15;;
55067;SDS011;40965;52.368;9.712;2022-09-14T09:09:55;5.93;;;1.05;;
55067;SDS011;40965;52.368;9.712;2022-09-14T09:12:43;4.63;;;1.20;;
55067;SDS011;40965;52.368;9.712;2022-09-14T09:15:20;4.90;;;1.48;;
55067;SDS011;40965;52.368;9.712;2022-09-14T09:18:21;3.63;;;1.30;;
55067;SDS011;40965;52.368;9.712;2022-09-14T09:23:48;4.70;;;1.35;;
55067;SDS011;40965;52.368;9.712;2022-09-14T09:26:27;4.22;;;0.95;;
55067;SDS011;40965;52.368;9.712;2022-09-14T09:28:59;5.88;;;1.55;;
55067;SDS011;40965;52.368;9.712;2022-09-14T09:31:32;4.63;;;1.08;;
55067;SDS011;40965;52.368;9.712;2022-09-14T09:34:15;9.18;;;1.73;;
55067;SDS011;40965;52.368;9.712;2022-09-14T09:36:48;4.05;;;1.02;;
55067;SDS011;40965;52.368;9.712;2022-09-14T09:39:17;3.60;;;1.25;;
55067;SDS011;40965;52.368;9.712;2022-09-14T09:42:00;1.38;;;1.27;;
55067;SDS011;40965;52.368;9.712;2022-09-14T09:44:51;5.90;;;1.63;;
55067;SDS011;40965;52.368;9.712;2022-09-14T09:47:41;2.95;;;0.80;;
55067;SDS011;40965;52.368;9.712;2022-09-14T09:50:20;2.47;;;0.82;;
55067;SDS011;40965;52.368;9.712;2022-09-14T09:52:53;7.72;;;0.90;;
55067;SDS011;40965;52.368;9.712;2022-09-14T09:55:27;6.68;;;1.42;;
55067;SDS011;40965;52.368;9.712;2022-09-14T10:01:47;3.83;;;1.70;;
55067;SDS011;40965;52.368;9.712;2022-09-14T10:06:45;5.65;;;1.63;;
55067;SDS011;40965;52.368;9.712;2022-09-14T10:09:21;5.50;;;0.98;;
55067;SDS011;40965;52.368;9.712;2022-09-14T10:11:56;5.03;;;1.17;;
55067;SDS011;40965;52.368;9.712;2022-09-14T10:14:29;3.92;;;1.42;;
55067;SDS011;40965;52.368;9.712;2022-09-14T10:17:15;4.88;;;0.98;;
55067;SDS011;40965;52.368;9.712;2022-09-14T10:19:53;3.85;;;1.10;;
55067;SDS011;40965;52.368;9.712;2022-09-14T10:22:26;7.05;;;1.38;;
55067;SDS011;40965;52.368;9.712;2022-09-14T10:25:03;2.97;;;0.90;;
55067;SDS011;40965;52.368;9.712;2022-09-14T10:32:58;2.28;;;1.25;;
55067;SDS011;40965;52.368;9.712;2022-09-14T10:35:36;2.42;;;1.10;;
55067;SDS011;40965;52.368;9.712;2022-09-14T10:38:41;5.43;;;0.85;;
55067;SDS011;40965;52.368;9.712;2022-09-14T10:41:20;8.77;;;1.23;;
55067;SDS011;40965;52.368;9.712;2022-09-14T10:44:04;4.13;;;1.10;;
55067;SDS011;40965;52.368;9.712;2022-09-14T10:50:33;6.00;;;1.20;;
55067;SDS011;40965;52.368;9.712;2022-09-14T10:56:59;4.90;;;0.80;;
55067;SDS011;40965;52.368;9.712;2022-09-14T11:00:03;1.33;;;0.90;;
55067;SDS011;40965;52.368;9.712;2022-09-14T11:02:43;3.63;;;1.00;;
55067;SDS011;40965;52.368;9.712;2022-09-14T11:05:33;2.70;;;1.13;;
55067;SDS011;40965;52.368;9.712;2022-09-14T11:08:19;8.02;;;1.63;;
55067;SDS011;40965;52.368;9.712;2022-09-14T11:11:14;3.83;;;1.77;;
55067;SDS011;40965;52.368;9.712;2022-09-14T11:14:08;5.00;;;1.35;;
55067;SDS011;40965;52.368;9.712;2022-09-14T11:20:43;5.78;;;2.28;;
55067;SDS011;40965;52.368;9.712;2022-09-14T11:23:56;5.32;;;2.05;;
55067;SDS011;40965;52.368;9.712;2022-09-14T11:26:32;6.85;;;1.60;;
55067;SDS011;40965;52.368;9.712;2022-09-14T11:29:27;1.15;;;1.08;;
55067;SDS011;40965;52.368;9.712;2022-09-14T11:34:42;9.55;;;1.40;;
55067;SDS011;40965;52.368;9.712;2022-09-14T11:37:28;6.43;;;1.23;;
55067;SDS011;40965;52.368;9.712;2022-09-14T11:40:13;5.00;;;1.15;;
55067;SDS011;40965;52.368;9.712;2022-09-14T11:46:37;4.70;;;0.77;;
55067;SDS011;40965;52.368;9.712;2022-09-14T11:49:21;2.90;;;0.93;;
55067;SDS011;40965;52.368;9.712;2022-09-14T11:52:21;5.50;;;1.00;;
55067;SDS011;40965;52.368;9.712;2022-09-14T11:55:24;3.22;;;1.63;;
55067;SDS011;40965;52.368;9.712;2022-09-14T11:57:53;6.32;;;1.02;;
55067;SDS011;40965;52.368;9.712;2022-09-14T12:11:45;3.25;;;0.82;;
55067;SDS011;40965;52.368;9.712;2022-09-14T12:19:48;2.38;;;0.55;;
55067;SDS011;40965;52.368;9.712;2022-09-14T12:27:48;3.30;;;0.70;;
55067;SDS011;40965;52.368;9.712;2022-09-14T12:43:52;3.20;;;0.70;;
55067;SDS011;40965;52.368;9.712;2022-09-14T12:46:31;2.72;;;1.05;;
55067;SDS011;40965;52.368;9.712;2022-09-14T12:49:46;3.72;;;0.70;;
55067;SDS011;40965;52.368;9.712;2022-09-14T12:51:55;5.28;;;1.35;;
55067;SDS011;40965;52.368;9.712;2022-09-14T12:54:44;4.47;;;0.85;;
55067;SDS011;40965;52.368;9.712;2022-09-14T12:57:34;5.15;;;1.00;;
55067;SDS011;40965;52.368;9.712;2022-09-14T13:00:31;3.42;;;0.90;;
55067;SDS011;40965;52.368;9.712;2022-09-14T13:06:14;5.97;;;0.85;;
55067;SDS011;40965;52.368;9.712;2022-09-14T13:08:53;3.20;;;1.17;;
55067;SDS011;40965;52.368;9.712;2022-09-14T13:11:31;2.80;;;1.17;;
55067;SDS011;40965;52.368;9.712;2022-09-14T13:14:17;1.48;;;0.50;;
55067;SDS011;40965;52.368;9.712;2022-09-14T13:16:46;2.28;;;0.70;;
55067;SDS011;40965;52.368;9.712;2022-09-14T13:19:26;3.40;;;1.27;;
55067;SDS011;40965;52.368;9.712;2022-09-14T13:22:15;2.58;;;0.77;;
55067;SDS011;40965;52.368;9.712;2022-09-14T13:24:46;2.53;;;0.65;;
55067;SDS011;40965;52.368;9.712;2022-09-14T13:27:21;3.63;;;0.95;;
55067;SDS011;40965;52.368;9.712;2022-09-14T13:32:52;1.42;;;0.80;;
55067;SDS011;40965;52.368;9.712;2022-09-14T13:35:29;5.47;;;1.10;;
55067;SDS011;40965;52.368;9.712;2022-09-14T13:38:08;4.03;;;0.73;;
55067;SDS011;40965;52.368;9.712;2022-09-14T13:40:45;6.05;;;0.65;;
55067;SDS011;40965;52.368;9.712;2022-09-14T13:43:22;3.13;;;0.68;;
55067;SDS011;40965;52.368;9.712;2022-09-14T13:45:49;1.30;;;0.43;;
55067;SDS011;40965;52.368;9.712;2022-09-14T13:48:26;4.70;;;0.75;;
55067;SDS011;40965;52.368;9.712;2022-09-14T13:50:55;4.10;;;0.80;;
55067;SDS011;40965;52.368;9.712;2022-09-14T13:53:43;2.88;;;0.85;;
55067;SDS011;40965;52.368;9.712;2022-09-14T13:56:26;2.40;;;0.60;;
55067;SDS011;40965;52.368;9.712;2022-09-14T14:01:34;2.20;;;0.50;;
55067;SDS011;40965;52.368;9.712;2022-09-14T14:04:04;1.88;;;0.63;;
55067;SDS011;40965;52.368;9.712;2022-09-14T14:07:02;3.95;;;0.70;;
55067;SDS011;40965;52.368;9.712;2022-09-14T14:09:39;2.63;;;1.00;;
55067;SDS011;40965;52.368;9.712;2022-09-14T14:12:30;2.95;;;0.70;;
55067;SDS011;40965;52.368;9.712;2022-09-14T14:17:39;2.75;;;1.20;;
55067;SDS011;40965;52.368;9.712;2022-09-14T14:23:14;4.78;;;0.80;;
55067;SDS011;40965;52.368;9.712;2022-09-14T14:25:50;3.78;;;1.08;;
55067;SDS011;40965;52.368;9.712;2022-09-14T14:28:25;2.55;;;0.63;;
55067;SDS011;40965;52.368;9.712;2022-09-14T14:30:57;4.22;;;0.80;;
55067;SDS011;40965;52.368;9.712;2022-09-14T14:33:27;1.50;;;0.77;;
55067;SDS011;40965;52.368;9.712;2022-09-14T14:35:58;2.15;;;0.93;;
55067;SDS011;40965;52.368;9.712;2022-09-14T14:38:26;7.30;;;0.88;;
55067;SDS011;40965;52.368;9.712;2022-09-14T14:41:11;3.67;;;0.73;;
55067;SDS011;40965;52.368;9.712;2022-09-14T14:43:43;4.95;;;0.90;;
55067;SDS011;40965;52.368;9.712;2022-09-14T14:46:15;1.85;;;0.77;;
55067;SDS011;40965;52.368;9.712;2022-09-14T14:48:42;3.20;;;0.90;;
55067;SDS011;40965;52.368;9.712;2022-09-14T14:51:11;1.20;;;0.63;;
55067;SDS011;40965;52.368;9.712;2022-09-14T14:53:40;3.20;;;1.40;;
55067;SDS011;40965;52.368;9.712;2022-09-14T14:56:10;2.72;;;0.50;;
55067;SDS011;40965;52.368;9.712;2022-09-14T14:58:44;6.97;;;0.95;;
55067;SDS011;40965;52.368;9.712;2022-09-14T15:01:13;2.80;;;1.17;;
55067;SDS011;40965;52.368;9.712;2022-09-14T15:03:40;3.72;;;0.55;;
55067;SDS011;40965;52.368;9.712;2022-09-14T15:06:09;7.25;;;1.20;;
55067;SDS011;40965;52.368;9.712;2022-09-14T15:08:43;5.72;;;0.98;;
55067;SDS011;40965;52.368;9.712;2022-09-14T15:11:14;3.92;;;0.80;;
55067;SDS011;40965;52.368;9.712;2022-09-14T15:13:45;3.00;;;0.93;;
55067;SDS011;40965;52.368;9.712;2022-09-14T15:16:13;4.00;;;0.80;;
55067;SDS011;40965;52.368;9.712;2022-09-14T15:18:40;6.43;;;0.73;;
55067;SDS011;40965;52.368;9.712;2022-09-14T15:21:16;2.55;;;0.55;;
55067;SDS011;40965;52.368;9.712;2022-09-14T15:23:43;2.55;;;0.65;;
55067;SDS011;40965;52.368;9.712;2022-09-14T15:26:10;1.65;;;0.90;;
55067;SDS011;40965;52.368;9.712;2022-09-14T15:28:43;3.70;;;0.75;;
55067;SDS011;40965;52.368;9.712;2022-09-14T15:31:13;1.13;;;0.77;;
55067;SDS011;40965;52.368;9.712;2022-09-14T15:33:44;3.53;;;1.02;;
55067;SDS011;40965;52.368;9.712;2022-09-14T15:36:12;1.88;;;0.85;;
55067;SDS011;40965;52.368;9.712;2022-09-14T15:38:59;6.28;;;0.75;;
55067;SDS011;40965;52.368;9.712;2022-09-14T15:41:33;2.63;;;0.60;;
55067;SDS011;40965;52.368;9.712;2022-09-14T15:44:07;3.47;;;0.98;;
55067;SDS011;40965;52.368;9.712;2022-09-14T15:46:44;1.63;;;1.10;;
55067;SDS011;40965;52.368;9.712;2022-09-14T15:49:17;4.30;;;0.93;;
55067;SDS011;40965;52.368;9.712;2022-09-14T15:51:50;2.67;;;1.00;;
55067;SDS011;40965;52.368;9.712;2022-09-14T15:56:53;1.80;;;0.70;;
55067;SDS011;40965;52.368;9.712;2022-09-14T15:59:24;6.43;;;1.88;;
55067;SDS011;40965;52.368;9.712;2022-09-14T16:01:52;5.03;;;1.15;;
55067;SDS011;40965;52.368;9.712;2022-09-14T16:04:20;3.80;;;0.90;;
55067;SDS011;40965;52.368;9.712;2022-09-14T16:06:52;4.57;;;1.27;;
55067;SDS011;40965;52.368;9.712;2022-09-14T16:09:29;5.78;;;1.30;;
55067;SDS011;40965;52.368;9.712;2022-09-14T16:11:57;1.55;;;1.33;;
55067;SDS011;40965;52.368;9.712;2022-09-14T16:14:32;3.33;;;0.93;;
55067;SDS011;40965;52.368;9.712;2022-09-14T16:17:02;2.45;;;0.73;;
55067;SDS011;40965;52.368;9.712;2022-09-14T16:19:35;3.45;;;0.90;;
55067;SDS011;40965;52.368;9.712;2022-09-14T16:22:08;3.75;;;1.13;;
55067;SDS011;40965;52.368;9.712;2022-09-14T16:24:37;1.58;;;1.45;;
55067;SDS011;40965;52.368;9.712;2022-09-14T16:27:05;2.60;;;1.10;;
55067;SDS011;40965;52.368;9.712;2022-09-14T16:29:41;2.65;;;0.75;;
55067;SDS011;40965;52.368;9.712;2022-09-14T16:33:14;1.95;;;0.70;;
55067;SDS011;40965;52.368;9.712;2022-09-14T16:36:41;3.55;;;0.80;;
55067;SDS011;40965;52.368;9.712;2022-09-14T16:39:25;2.92;;;0.52;;
55067;SDS011;40965;52.368;9.712;2022-09-14T16:41:57;6.07;;;1.42;;
55067;SDS011;40965;52.368;9.712;2022-09-14T16:44:24;3.63;;;1.10;;
55067;SDS011;40965;52.368;9.712;2022-09-14T16:46:57;1.67;;;0.75;;
55067;SDS011;40965;52.368;9.712;2022-09-14T16:49:25;4.53;;;1.20;;
55067;SDS011;40965;52.368;9.712;2022-09-14T16:51:56;2.15;;;0.63;;
55067;SDS011;40965;52.368;9.712;2022-09-14T16:54:25;2.80;;;1.10;;
55067;SDS011;40965;52.368;9.712;2022-09-14T16:56:53;3.13;;;0.70;;
55067;SDS011;40965;52.368;9.712;2022-09-14T16:59:22;2.00;;;1.20;;
55067;SDS011;40965;52.368;9.712;2022-09-14T17:01:49;2.45;;;1.38;;
55067;SDS011;40965;52.368;9.712;2022-09-14T17:04:16;3.28;;;1.58;;
55067;SDS011;40965;52.368;9.712;2022-09-14T17:06:47;3.70;;;1.05;;
55067;SDS011;40965;52.368;9.712;2022-09-14T17:09:17;1.55;;;0.80;;
55067;SDS011;40965;52.368;9.712;2022-09-14T17:11:53;1.73;;;0.77;;
55067;SDS011;40965;52.368;9.712;2022-09-14T17:14:25;3.70;;;1.85;;
55067;SDS011;40965;52.368;9.712;2022-09-14T17:16:55;2.17;;;1.38;;
55067;SDS011;40965;52.368;9.712;2022-09-14T17:19:22;2.58;;;1.50;;
55067;SDS011;40965;52.368;9.712;2022-09-14T17:21:49;4.07;;;2.28;;
55067;SDS011;40965;52.368;9.712;2022-09-14T17:24:18;4.65;;;2.45;;
55067;SDS011;40965;52.368;9.712;2022-09-14T17:26:47;4.40;;;2.00;;
55067;SDS011;40965;52.368;9.712;2022-09-14T17:29:14;8.07;;;2.08;;